Race Results for
Tour de Park City
Park City, UT
(Event Information)
View By:
Road Race on 07/28/2012

Note: Ranking points are NOT upgrade points. An explanation of ranking points can be found here.


Men - Cat4/5 - Master - 35-99

 Place Points NameCity, StateTime USAC #BibTeam
1462.58Brad WILSON   Draper, UT7:30:21 331546  363 Revolution/Cafe Rio
2464.37Tony PETERSON   North Salt Lake, UT7:30:51 368032  347 Bountiful Bike Club
3466.16David BAGLEY   Kaysville, UT7:30:52 347220  303 Max.com
4467.95Jason PRIGGE (1 - Cat5)   Salt Lake City7:31:47 279087  371 X-Men The
5469.74Bill MURRAY   Saltlakecity, UT7:31:51 289706  342 Team Big Ring Realcyclist
6471.53Justin GIBSON   Pleasant View, UT7:32:23 263645  325 Chick-fil-a/Excelerator Sports
7473.32Randy WILCOX   Henderson, NV7:32:46 271241  362 Red Burro Racing
8475.11Jaren GIBSON   Syracuse, UT7:33:54 294409  324 Chick-fil-a/Excelerator Sports
9476.90Steve WILSON   Salt Lake City, UT7:38:01 263094  366 Team Dialogue
10478.69Brian HOBBS   Idaho Falls, ID7:38:18 358749  370 Eagle Rock Cycling
11480.48Joshua BOND   Mountain Green, UT7:39:13 294714  309 Needles Peak / Lone Tree
12482.27Shawn BECKSTROM   Ogden, UT7:39:13 347606  304 
13484.06Jason SPARKS (2 - Cat5)   Brigham City, UT7:39:25 330820  357 GoldenSpike/Cedar Cycle
14485.85Jerry BERGOSH   Salt Lake City, UT7:39:58 246295  307 SLC BICYCLE CO.
15487.64Steve SCHOONOVER   Draper, UT7:41:57 254266  365 Revolution Cafe Rio
16489.43Jared ROYER   Santa Clara, UT7:42:20 313066  349 Team Red Rock / Spin Geeks
17491.22Lance ANDERSON   Draper, UT7:43:16 245283  302 Revolution/Cafe Rio
18493.01Randall STEINFELDT (3 - Cat5)   West Jordan7:43:19 377817  358 Simply Mac Racing Bountiful Bi
19494.80Jason WICKENS   Henderson, NV7:43:32 294658  361 
20496.59Tyler SMITH (4 - Cat5)   Highland, UT7:44:41 278056  356 Dialogue Racing
21498.38Bruce JOHANSEN (5 - Cat5)   Salt Lake City, UT7:44:58 382307  335 
22500.17Curtis MADSEN (6 - Cat5)   Layton, UT7:45:54 348276  338 needls peek
23501.96Kevin CLEGG (7 - Cat5)   Highland, UT7:48:32 375217  315 
24503.75Steven BENSON (8 - Cat5)   Las Vegas, NV7:48:58 160341  306 Red Burro
25505.54Ian SKURNIK   Salt Lake City, UT7:49:23 32887  369 MiDoule
26507.33Gregory ONEIL   Salt Lake City7:49:31 375123  345 MiDuole
27UNKNOWN RIDER   7:51:39  368 -------
28510.91Josh FOUKAS   Kaysville, UT7:51:51 311591  321 Sonora Grill/Bicycle Center
29512.70Ethan FISHER   Salt Lake City, UT7:51:51 206076  319 Sonora Grill/Bicycle Center
30514.49Rob VERHAAREN   Any Town, AZ7:52:36 279113  360 
31516.28Eric RUBIE   Salt Lake City, UT7:52:45 266830  367 
32518.07Kevin JOHANSEN (9 - Cat5)   Salt Lake City, UT7:52:52 294076  336 
33519.86Jamie WHITE (10 - Cat5)   Salt Lake City, UT7:53:19 335928  382 Barbacoa - Mi Duole
34521.65Steve HADLEY   Tooele, UT7:53:28 178696  326 Porcupine Cycling
35523.44Alan HAMBERLIN   Gilbert, AZ7:54:16 319748  328 MiDuole/Barbacoa
36Gordon SMITH   7:54:29  353 
37527.02Adam KROMMENHOEK   Mapleton, UT7:56:33 307082  337 Campagnolo Sportswear
38528.81Dwaine ALLGIER   Salt Lake City, UT7:58:55 210238  300 BruteForce
39530.60Jack ANDERSEN (11 - Cat5)   Ogden, UT7:59:05 377824  301 Simplymac racing
40532.39John SHIRLEY   Saltlakecity, UT8:01:43 307437  352 Skullcandy/ Think Architecture
41534.18Adam CRAYK   Draper, UT8:02:55 291523  316 Skullcandy/Think
42535.97Ryan WOOLSTON   Sandy, UT8:03:16 266873  364 Revolution Cafe Rio
43537.76Cade ERICKSON   Layton, UT8:05:09 347476  318 The bike Shop
44David SWEENEY   8:05:10  359 
45541.34Tim HANSON   South Jordan, UT8:06:13 81268  329 
46543.13Kevin PARRY   Sandy, UT8:10:31 260918  346 SkullCandy/Think Architects
47544.92Bart MORRISON (12 - Cat5)   Idaho Falls, ID8:12:53 312144  339 golden spike
48546.71Stuart PORTER   Spanish Fork, UT8:16:01 366601  348 team dialogue
49548.50Bryan CHILD (13 - Cat5)   Pleasant View, UT8:17:50 234339  314 Simply Mac
50550.29Eric ODELL   Ririe, ID8:20:18 346528  344 Eagle Rock Cycling
51Tyler CALL   8:23:22  312 
52553.87Gregory SMITH   Henderson, NV8:24:33 346452  354 Red Burro Racing
53555.66Dale Rycraft Jr   Mesa, AZ8:24:33 271273  350 
54557.45Steve HOGAN   Kaysville, UT9:18:33 295072  332 Golden Spike Staker Parson
55559.24Scott MORRISON   Kaysville, UT9:18:33 244438  340 Golden Spike Cycling
56561.03Matthew BURNETT (14 - Cat5)   Salt Lake City, UT9:25:48 315828  310 
57562.82Tom CHASE (15 - Cat5)   Kaysville, UT9:28:16 376341  313 CA Pools CFS Mortgage
58564.61Breen HOLMES (16 - Cat5)   Alpine, UT9:30:46 348616  333 
59566.40Jacob HALES   Perry, UT9:39:09 114239  327 
60568.19Brett HORSTMANN (17 - Cat5)   West Point, UT9:39:09 379411  334 
61Jay MSUE   9:59:16  341 Masherz
DNFBruce HILL (Cat5)   West Haven, UT0:00:00 347050  331 Simply Mac Racing p/b Bountifu
DNFJeff HARRIS (Cat5)   Bountiful, UT0:00:00 291091  330 Bountiful Mazda
DNFReginald FOSTER   Sandy, UT0:00:00 140937  320 Masherz
DNFTodd NEWMAN (Cat5)   Las Vegas, NV0:00:00 377446  343 Red Burro Racing
DNFBenjamin BELL   Salt Lake City, UT0:00:00 270517  305 CONTENDER CLUB
DNFWalter BLANCO   Layton, UT0:00:00 196598  308 Ski Utah
DNFPhillip SMITH   Sandy, UT0:00:00 304308  355 Revolution Cafe RIo
DNFCharlie DIXON   Beaumont, TX0:00:00 53469  317 Austin Bikes
DNFJared FROST (Cat5)   Las Vegas, NV0:00:00 377447  322 Red Burro Racing
DNFEric SCAIFE   Salt Lake City, UT0:00:00 264588  351 the contender club
DNFJerald OLSEN (Cat5)   Roy, UT0:00:00 278981  383 Chick-fil-a/Excelerator Sports
DNFDamon GEORGELAS (Cat5)   Park City, UT0:00:00 380374  323 

Men - Cat1/2/3/4/ - Master - 55-99

 Place Points NameCity, StateTime USAC #BibTeam
1326.04Lorin RONNOW (1 - Cat3)   Salt Lake City, UT7:38:57 264904  163 FFKR Architects Racing
2334.54Joseph BRUBAKER (2 - Cat3)   Saltlakecity, UT7:38:58 303618  166 Ski Utah Cycling Team
3343.04John LAUCK (3 - Cat3)   Bountiful, UT7:40:03 228846  158 Bountiful Mazda Cycling Team
4351.54Elton REID (1 - Cat4)   Park City, UT7:41:18 192940  162 FFKR
5360.04Tek KILGORE   Salt Lake City, UT7:46:23 233661  157 Miduole
6368.54Mark PARENT (2 - Cat4)   Boise, ID7:52:10 377364  160 Look Save A LIfe
7377.04Jerald HUNSAKER (4 - Cat3)   Midvale, UT7:58:02 142960  156 Bountiful Mazda Cycling Team
8385.54Douglas HANSEN (3 - Cat4)   West Jordan, UT8:12:27 243640  155 Revolution / Cafe Rio
9394.04Anthony QUINN (5 - Cat3)   Salt Lake City, UT8:24:01 75976  161 Mi Doule
10402.54Farrell SPACKMAN (4 - Cat4)   Harrisville, UT8:35:48 247086  164 Chick-fil-a/Excelerator Sports
11411.04Darryll ERVIN (5 - Cat4)   Sandy, UT9:00:51 222601  154 FFKR Racing Team
12419.54Greg SKORDAS   Murray, UT9:06:34 276401  165 
13Ken HALL   9:34:01  167 
DNFMichael MACDONALD (Cat3)   Salt Lake City, UT0:00:00 146521  159 Bountiful Mazda Cycling Team
DNFNoah ASHTON   0:00:00  901 
DNFJohn BERCAW (Cat4)   Salt Lake City, UT0:00:00 202151  153 Ski Utah

Men - Cat1/2/3 - Master - 40-99

 Place Points NameCity, StateTime USAC #BibTeam
1Louie Ambelbu   7:21:37  265 HarmonyHomes.com
2288.15Justin WILSON (1 - Cat2)   Salt Lake City, UT7:21:37 263234  266 Revolution Cafe Rio
3305.97Mark SCHAEFER (2 - Cat2)   Ogden, UT7:21:38 66592  259 HarmonyHomes.com
4323.79Michael OLSEN   Las Vegas, NV7:21:38 213609  257 Red Burro Racing
5341.61Scott KISER (3 - Cat2)   Cottonwoodheights, UT7:25:11 281191  255 Bountiful Mazda Cycling Team
6359.43Dave SHARP (1 - Cat3)   Salt Lake City, UT7:35:37 161941  260 RMCC Cyclesmith
7377.25Bob CRAIN (4 - Cat2)   Rancho Cucamonga, CA7:38:14 183270  253 
8395.07Tom COOKE   Park City, UT7:38:21 7681  264 X Men
9412.89Dr. Todd FLITTON   Kaysville, UT7:39:15 292288  254 Bikers Edge
10430.71Mark LARSEN (5 - Cat2)   St George, UT7:42:14 54675  256 Team Red Rock/ Spin Geeks
11448.53Jason TRAVIS   Park City, UT7:53:57 35878  262 Jan's/x-men
12466.35Mike AUSTIN (2 - Cat3)   Sandy, UT8:02:06 286257  250 Mi Duole
13484.17Eric WOOLSEY (3 - Cat3)   Draper, UT8:03:55 292104  263 Mi Duole/Barbacoa
DNFBruce BILODEAU (Cat2)   Sandy, UT0:00:00 215197  251 Canyon Bicycles
DNFBrendan QUIRK (Cat3)   Park City, UT0:00:00 49876  258 Competitive Cyclist
DNFRick BLACK (Cat3)   Alpine, UT0:00:00 210661  252 Team plan 7

Men - Cat 5A

 Place Points NameCity, StateTime USAC #BibTeam
1540.00Creighton LOWE   Coeur D'alene, ID7:24:37 313318  231 Lifetime Fitness
2Thomas PITCHER   7:37:56  220 
3545.56Michael HAWLEY   Roosevelt, UT7:40:13 377762  216 
4548.34Derrick WARLAUMONT   Syracuse, UT8:05:50 357749  209 Roosters/Bikers Edge
5551.12John Ford   Salt Lake City8:06:14 385382  205 
6553.90Brian POTEMPA   Park City, UT8:06:15 151505  207 
7556.68Matthew DRAPER   West Bountiful8:18:26 360244  204 Simply Mac Racing
8559.46John EMMETT   Heber City, UT8:22:29 294184  219 Team Dialogue
9562.24Ryan FLORENCE   Draper, UT8:23:35 371466  214 Barbacoa - Mi Duole
10565.02Ravell CALL   Farmington, UT8:24:54 378010  203 Roosters/Bikers Edge
11567.80Jeff Jarvie   Lehi, UT8:25:00 98582  213 
12570.58Morriah PALMER   Mountain Green, UT8:25:16 347544  210 Needles Peak
13573.36Mckay ROBINSON   Herriman, UT8:27:32 347028  208 Infinite Cycles
14576.14Jason BOND   South Ogden, UT9:04:09 347696  201 
15578.92Layne DEVEREAUX   Salt Lake City, UT9:40:39 346762  215 Red Burro
16581.70Paul HOUSER   Salt Lake City, UT9:40:39 277808  226 
17584.48Pat MCGINNIS   Providence9:43:37 23479  218 
18587.26Brandon BRIGGS   Herriman, UT9:54:29 377513  202 Contender Bike
19590.04Scott COLD   Murray, UT11:26:24 281163  651 Warm Family Dental
DNFNald SHEEDAN   0:00:00  221 
DNFRyan ANDERSON   0:00:00  200 Red Burros Racing
DNFFranz BUTLER   Kaysville, UT0:00:00 291949  212 Bountiful Mazda Cycling Team
DNFMark PARENT   Boise, ID0:00:00 377364  225 
DNFJoe MULLAN   0:00:00  237 
DNFJon BUTLER   Ogden, UT0:00:00 377579  211 Bountiful Mazda Cycling Team
DNFChip PAGE   Kaysville, UT0:00:00 295214  206 Porcupine Cycling

Men - Pro/Cat 1/2

 Place Points NameCity, StateTime USAC #BibTeam
1Thomas RABCH   6:41:27  10 
2156.57Francisco MANCEBO   Dahlonega, GA6:41:27 334418  12 
3Tommy NANKETUIS   7:00:24  13 
4174.01Darren GOFF (1 - Cat1)   South Weber, UT7:00:25 301825  Simply Mac Racing p/b Bountifu
5182.73Jacob STOCKING (2 - Cat1)   Salt Lake City, UT7:00:27 222652  16 Revolution Cafe Rio
6191.45Michael OLHEISER (1 - Pro)   Huntsville, AL7:00:29 133375  11 Team juwi solar/First Solar
7Ian DURNETT   7:01:00  
8208.89Chris MACKAY (1 - Cat2)   Park City, UT7:00:01 228770  15 Competitive Cyclist
9217.61Spencer DEBRY (2 - Cat2)   Sandy, UT7:01:20 242242  Revolution Cafe Rio
10226.33Martin ACOSTA (3 - Cat1)   East Palo Alto, CA7:02:24 291277  17 McGuire Cycling Team
11David WILLIAMS   7:04:14  
12243.77Peter YOUNG (3 - Cat2)   Missoula, MT8:04:22 307347  14 Northern Rockies Cycling Team
DNFAndrew CLARKE (Cat1)   Medina, OH0:00:00 212538  Panther pb Competitive Cyclist
DNFCameron HOFFMAN (Cat1)   Clearfield, UT0:00:00 57141  Simply Mac Racing
DNFWill HANSON (Cat2)   Draper, UT0:00:00 276490  Revolution Cafe Rio
DNFRoger ARNELL (Cat2)   Mountain View, CA0:00:00 311845  Roosters/Bikers Edge
DNFNorman BRYNER (Cat1)   Salt Lake City, UT0:00:00 201017  Millcreek Bicycles

Men - Cat 3

 Place Points NameCity, StateTime USAC #BibTeam
1329.12Bonn TURKINGTON   Alpine, UT7:10:03 219425  46 Canyon Bicycles (Draper)
2339.37Tyler MATSON   Sunset, UT7:10:04 292523  37 Simply Mac p/b Bountiful Bicyc
3349.62Ira SORENSEN   Herriman, UT7:20:53 318710  43 Infinite Cycles
4359.87Greg PETERSEN   Salt Lake City, UT7:24:04 294175  41 Sonora Grill/Bicycle Center
5370.12Bill GOWSKI   Salt Lake City, UT7:24:04 326152  47 
6380.37Nathan BARNES   Herriman, UT7:24:45 289318  30 Infinite cycles
7390.62Brandon BLACKWELL   Centerville, UT7:44:25 353576  31 Simply Mac p/b Bountiful Bicyc
8Jared PRINCE   7:48:42  42 Team Bobs-Bicycles.com
9411.12Shawn KINGREY   Pueblo, CO7:53:48 167284  36 Team Body Sync
10421.37Simon PARSONS   Sandy, UT7:59:29 342340  40 Revolution Cafe Rio
11431.62Michael KRACHT   Park City, UT8:00:15 271396  48 Team Big Ring-Realcyclist.com
12441.87Brian CADMAN   Park City, UT8:00:29 296523  32 The Church of the Big Ring
13452.12Josh CARTER   South Ogden, UT8:03:43 245675  33 Sonora Grill/Bicycle Center
14462.37Zach TERRY   Sandy, UT8:03:44 245783  45 Sonora Grill/Bicycle Center
15472.62Ryan OTTLEY   Providence, UT8:06:14 224853  39 Logan Race Club
16482.87Blake FESSLER   South Ogden, UT8:08:10 264500  34 Sonora Grill/Bicycle Center
17493.12Payton NISHIKAWA   Willard, UT8:16:05 26145  38 Chick-fil-a/Excelerator Sports
DNFRichard DALEY   Sandy, UT0:00:00 8549  49 
DNFLuke STEVENSON   Salt Lake City, UT0:00:00 311180  44 Dialogue Racing
DNFJesse JENSEN   Park City, UT0:00:00 300502  35 Simply Mac p/b Bountiful Bicyc

Men - Cat 4

 Place Points NameCity, StateTime USAC #BibTeam
1409.87Kyle NELSON   Riverton, UT7:36:48 291230  62 Spider Bait Cycling
2418.68Geoffery BARRY   Salt Lake City, UT7:37:17 312304  51 Mi Duole
3427.49Noah GRASSI   Las Vegas, NV7:41:15 360114  57 Les Rois
4436.30Ryan WILCOCK   Riverton, UT7:44:08 289736  69 Spider Bait Cycling
5445.11David BRINTON   South Jordan, UT7:44:17 312045  75 Infinite Cycles
6453.92Colter HAMMER   Salt Lake City, UT7:46:25 345166  58 Dialogue Racing
7462.73Dallas ZURCHER   Lehi, UT7:46:25 311079  71 
8471.54Mark ESPLIN   Centerville, UT7:48:29 278796  55 bountiful mazda
9480.35Isaac KUNZ   Holladay, UT7:54:22 350366  74 Barbacoa - Mi Duole
10489.16Philip BOYACK   Draper, UT7:55:22 334104  76 Barbacoa - Mi Duole
11497.97C Joe BUSBY   Brighton, UT7:55:29 264158  73 Bountiful Mazda Cycling Team
12506.78Scott BUCCAMBUSO   Salt Lake City, UT8:01:13 350648  53 Revolution Cafe Rio
13515.59Patrick CASSIDAY   Salt Lake City, UT8:02:29 327414  54 Blue Bear Outside
14524.40Matthew FAIRBOURN   Sandy, UT8:34:21 278311  56 Salt Lake City Bicycle Co
15533.21Jason LINDER   Park City, UT 341864  60 Simply Mac Racing
15533.21German MOYANO   Holladaysalt Lake City, UT8:57:23 366806  61 Revolution Cafe Rio
16542.02Ivun SORENSEN   Highland, UT9:27:17 371651  65 Infinite Cycles
17550.83Matthew THOMAS   Centerville, UT9:41:23 339688  67 Revolution Cafe Rio
18559.64Garrett STRONG   Park City, UT09:54:51 310100  66 Revolution
DNFKyle ANDERSON   Sandy, UT0:00:00 365998  50 Revolution Cafe Rio
DNFLucas PARKER   Riverton, UT0:00:00 287939  63 Spider Bait Cycling
DNFEadric BRESSEL   Providence, UT0:00:00 4777  52 Logan Race Club
DNFJake KAPP   Clinton, UT0:00:00 314716  59 Simply Mac p/b Bountiful Bicyc
DNFBrian SMITH   South Jordan, UT0:00:00 272129  64 Infinite Cycles
DNFAaron TORRIENTE   Midvale, UT0:00:00 350194  68 Revolution Cafe Rio
DNFTravis WINDER   Ogden, UT0:00:00 313210  70 Simply Mac Racing p/b Bountifu
DNFJames JI   Bountiful, UT0:00:00 357658  72 
DNFBrandon FRY   Spanish Fork, UT0:00:00 287038  77 Infinite Cycles

Men - Cat 5

 Place Points NameCity, StateTime USAC #BibTeam
1Jon ROSE   7:25:05  113 Adobe
2538.07Sage THORPE   Ogden, UT7:26:53 379445  124 simply mac
3539.29Adam EDMUNDS   Highland, UT7:36:24 377747  93 Lifetime/Infinite Cycles Racin
4540.51Benjamin BOOTH   Saratoga Springs, UT7:42:28 377205  84 CA Pools /CFS Mortgage
5541.73Rory DUCKWORTH   Draper, UT7:43:20 321092  92 BikeFix
6542.95Zach JACOBS   Kaysville, UT7:45:49 377189  99 
7544.17James WISSLER   Slc, UT7:52:24 377425  129 VCBO Cutters
8Tom HUDACHKO   7:56:41  96 VCBO Cutters
9546.61Nathan CURTIS   Orem, UT7:58:08 380299  90 
10547.83Bruce THOMAS   Layton, UT7:58:55 311795  123 Mountain View Orthopedics and
11Matt BROWN   7:59:12  86 Revolution/Peak Fastners
12550.27Cason SWINN   Las Vegas, NV8:05:10 395862  121 McGhies Madalay Bay
13551.49Samuel MEHR   Las Vegas, NV8:06:08 313316  106 Red Burro Racing
14552.71Jonathan JACKSON   Colorado Springs, CO8:06:08 347362  98 Red Burro Racing
15553.93Tim VALENTINER   Salt Lake City, UT8:14:47 281224  127 VCBO Cutters
16555.15Matt ASAY   Azle, TX8:15:41 315012  80 Revolution Cycling
17556.37Wayne HARTZELL   Orem8:21:40 384198  95 
18Dave DANSIE   8:25:57  91 VCBO
19558.81Jon LARSEN   Riverton, UT8:27:42 366305  102 Infinite Cycles
20560.03Matthew BLANGO   Salt Lake City, UT8:28:06 341382  82 Ski Utah Cycling
21561.25Ron NIEDERHAUSER   Morgan, UT8:32:37 347484  109 Needles Peak
22562.47Lars MORRIS   Draper, UT8:33:46 294710  108 
23563.69Mark SMITH   Holladay, UT8:34:06 311593  119 Logan Race Club
24564.91James HUNTER   Spring Creek, NV8:35:48 247284  97 Elko Velo
25566.13Mike SCHJELDAHL   Idaho Falls, ID08:45:08 379795  116 Eagle Rock Cycling
26567.35Shaun JOHNSON   Taylorsville, UT9:04:11 376935  100 Skull Candy
27568.57Billy RAPPLEYE   West Jordan, UT9:09:11 377406  112 
28569.79Surba TUCKER   Milwaukee Wisconsin9:30:51 346974  125 Revolution Cafe Rio
29571.01Glenn SENINGER   Salt Lake City, UT9:31:48 346458  117 Red Burro
30572.23Jeff BOOTE   Idaho Falls, ID9:32:45 312546  83 Eagle Rock
31573.45Clark LIVSEY   Springville, UT9:39:36 346482  103 
32Chuck SHARP   9:54:28  118 CUTTERS
33575.89Marty TATE   Salt Lake City, UT9:54:51 278434  122 Revolution Cafe Rio / VCBO Cut
34577.11Steven Kelly MCGEE   Herriman, UT10:02:42 369655  105 Infinite Cycles
35578.33Aaron PAPA   Las Vegas, NV10:09:14 311810  110 Red Burros
36579.55Terry SORENSEN   Herriman, UT10:14:01 377142  120 Contender Bicycles
37580.77David CALLAHAN   Cedar Park, TX10:20:41 322840  88 
38581.99Jason BENSON   Sandy, UT10:25:41 347224  81 Revolution Cafe Rio
39583.21Mark Pinson   Pleasant Grove Ut10:51:41 402792  111 
DNFShane WATT   Ammon, ID0:00:00 278421  128 Bills Bike Shop
DNFClain UDY   Centerville, UT0:00:00 376345  126 Roosters/Biker's Edge
DNFScott LUCAS   West Haven, UT0:00:00 353540  104 Roosters / Bikers Edge
DNFRyan CHRISTENSEN   Syracuse, UT0:00:00 260557  89 Roosters/Bikers Edge
DNFByron MONTGOMERY   Riverton, UT0:00:00 214220  107 Ski Utah Cycling
DNFDrew FREE   Draper, UT0:00:00 379077  94 Revolution/ RaceUSCS.com
DNFMike JORDE   Idaho Falls, ID0:00:00 375737  101 Eagle Rock Cycling

Women - Cat1/2/3/4 - Master - 35-99

 Place Points NameCity, StateTime USAC #BibTeam
1467.33Dina HANNAH (1 - Cat4)   Murray, UT8:34:54 306609  190 Revolution Cafe Rio
2Shelly MAUGHAN   8:38:33  191 
3589.99Christina STARK (2 - Cat4)   Sandy, UT9:00:00 376670  192 

Women - Pro/Cat 1/2/3

 Place Points NameCity, StateTime USAC #BibTeam
1293.47Anne PERRY (1 - Cat1)   Draper, UT8:04:41 339882  134 Revolution Cafe Rio
2310.99Kandice LUND (1 - Cat2)   Centerville, UT8:06:17 271795  132 bountiful mazda
3328.51Keri GIBSON (2 - Cat2)   Pleasantview, UT8:06:19 294391  131 Chick-fil-a/Excelerator Sports
4346.03Breanne NALDER (3 - Cat2)   Murray, UT8:07:12 263791  133 Ski Utah Cycling
5363.55Beth MCMASTER (1 - Cat3)   Mapleton, UT8:07:46 294100  137 Bountiful Mazda Cycling Team
6381.07Heather SMITH (2 - Cat3)   Layton, UT9:25:05 305085  136 Chick-fil-a/Excelerator Sports
DNFAnna PODGORNEY (Cat3)   Idaho Falls, ID0:00:00 246055  135 Eagle Rock Cycling-EIRMC
DNFMegan CLOWARD (Cat3)   Draper, UT0:00:00 308468  130 Revolution Cafe Rio

Women - Cat 4

 Place Points NameCity, StateTime USAC #BibTeam
1518.58Camille Brinton   South Jordan, UT08:09:24 348268  180 Infinite Cycles
2530.77Brooke PARENT   Boise, ID8:10;50 382151  184 
3542.96Andrea TUBBS   Draper, UT9:01:27 368334  185 Revolution cafe rio
4555.15Kathleen CROWLEY   Jackson, WY9:45:47 377856  181 Hoback Sports
5567.34Jennifer DROKE   South Jordan, UT11:05:57 378029  182 Team Excelerator
DNPBrooke PARENT   Boise, ID0:00:00 382151  187 
DNPKelli WINDER   Ogden, UT0:00:00 313100  186 Chick-fil-a/Excelerator Sports
DNPMarci KIMBALL   Salt Lake City, UT0:00:00 348500  183 Salt Lake City Bicycle Co

Report missing or incorrect license numbers

Volkswagen
USACDFSpyShimanoSierra NevadaBonk Breaker
UCI USA Cycling is the official governing body for all disciplines of competitive cycling in the United States. The 501c3, membership-based organization aims both to achieve sustained success in international cycling competition and to grow competitive cycling in America while delivering an exceptional customer experience.
View Children's Online Privacy Protection Policy
US Olympic Committee